Time;durP1;ratioP1;P1;durP2;ratioP2;P2;SDS_P1;SDS_P2;PMS_P1;PMS_P2;Temp;Humidity;BMP_temperature;BMP_pressure;BME280_temperature;BME280_humidity;BME280_pressure;Samples;Min_cycle;Max_cycle;Signal;HPM_P1;HPM_P2
2022/12/03 06:00:26;;;;;;;19.10;16.70;;;6.40;97.20;;;;;;1740271;28;20205;-72
2022/12/03 06:01:17;;;;;;;21.27;16.73;;;6.40;97.20;;;;;;1740853;28;20203;-73
2022/12/03 06:02:08;;;;;;;20.73;17.00;;;6.40;97.20;;;;;;1740887;28;20283;-73
2022/12/03 06:02:59;;;;;;;21.38;18.02;;;6.40;97.20;;;;;;1740693;28;20207;-72
2022/12/03 06:03:51;;;;;;;19.50;16.50;;;6.40;97.20;;;;;;1740882;28;20195;-72
2022/12/03 06:04:41;;;;;;;19.58;16.83;;;6.40;97.20;;;;;;1740870;28;20218;-73
2022/12/03 06:05:34;;;;;;;19.97;16.50;;;6.40;97.20;;;;;;1740783;28;20203;-73
2022/12/03 06:06:25;;;;;;;21.77;17.20;;;6.40;97.20;;;;;;1740846;28;20202;-72
2022/12/03 06:07:16;;;;;;;20.40;17.00;;;6.40;97.20;;;;;;1740622;28;20209;-73
2022/12/03 06:08:07;;;;;;;20.98;17.17;;;6.40;97.20;;;;;;1740694;28;20203;-72
2022/12/03 06:08:59;;;;;;;20.63;15.77;;;6.40;97.20;;;;;;1740714;28;20199;-73
2022/12/03 06:09:49;;;;;;;21.02;16.92;;;6.40;97.20;;;;;;1740263;28;20199;-73
2022/12/03 06:10:41;;;;;;;24.80;18.20;;;6.40;97.20;;;;;;1740669;28;20219;-73
2022/12/03 06:11:33;;;;;;;21.48;17.67;;;6.40;97.20;;;;;;1740739;28;20210;-72
2022/12/03 06:12:25;;;;;;;19.33;16.50;;;6.40;97.20;;;;;;1740836;28;20199;-73
2022/12/03 06:13:16;;;;;;;21.20;17.75;;;6.40;97.20;;;;;;1740759;28;20202;-73
2022/12/03 06:14:08;;;;;;;19.52;16.70;;;6.40;97.20;;;;;;1740755;28;20191;-72
2022/12/03 06:14:59;;;;;;;20.40;17.02;;;6.40;97.20;;;;;;1740902;28;20661;-73
2022/12/03 06:15:52;;;;;;;22.03;18.37;;;6.40;97.20;;;;;;1742337;28;20581;-73
2022/12/03 06:16:43;;;;;;;21.23;17.13;;;6.40;97.20;;;;;;1741922;28;20464;-73
2022/12/03 06:17:34;;;;;;;20.00;16.97;;;6.40;97.20;;;;;;1742154;28;20199;-73
2022/12/03 06:18:25;;;;;;;20.42;16.40;;;6.40;97.20;;;;;;1742152;28;20207;-72
2022/12/03 06:19:17;;;;;;;21.77;16.70;;;6.40;97.20;;;;;;1742173;28;20209;-73
2022/12/03 06:20:12;;;;;;;23.02;17.98;;;6.40;97.20;;;;;;1741740;28;20213;-72
2022/12/03 06:21:04;;;;;;;20.67;16.55;;;6.40;97.20;;;;;;1742182;28;20202;-72
2022/12/03 06:21:55;;;;;;;19.35;16.35;;;6.40;97.20;;;;;;1742082;28;20198;-73
2022/12/03 06:22:47;;;;;;;19.67;15.87;;;6.40;97.20;;;;;;1742072;28;20209;-72
2022/12/03 06:23:43;;;;;;;20.95;17.58;;;6.40;97.20;;;;;;1742318;28;20198;-73
2022/12/03 06:24:35;;;;;;;19.60;16.50;;;6.40;97.20;;;;;;1742180;28;20203;-72
2022/12/03 06:25:25;;;;;;;18.45;15.63;;;6.40;97.20;;;;;;1742040;28;20719;-73
2022/12/03 06:26:17;;;;;;;20.10;16.53;;;6.40;97.20;;;;;;1742144;28;20570;-72
2022/12/03 06:27:08;;;;;;;22.13;17.27;;;6.40;97.20;;;;;;1741546;28;20582;-73
2022/12/03 06:27:59;;;;;;;21.93;17.57;;;6.40;97.20;;;;;;1741744;28;20562;-72
2022/12/03 06:28:50;;;;;;;20.50;17.20;;;6.40;97.20;;;;;;1742121;28;20449;-73
2022/12/03 06:29:42;;;;;;;19.87;17.30;;;6.40;97.20;;;;;;1741805;28;20195;-73
2022/12/03 06:30:34;;;;;;;21.13;17.48;;;6.40;97.20;;;;;;1741396;28;20276;-72
2022/12/03 06:31:27;;;;;;;21.00;16.70;;;6.40;97.20;;;;;;1742067;28;20607;-73
2022/12/03 06:32:18;;;;;;;20.65;17.05;;;6.40;97.20;;;;;;1742005;28;20206;-72
2022/12/03 06:33:10;;;;;;;19.97;17.80;;;6.30;97.20;;;;;;1742090;28;20201;-72
2022/12/03 06:34:00;;;;;;;20.42;18.00;;;6.30;97.20;;;;;;1742002;28;20203;-72
2022/12/03 06:34:53;;;;;;;20.20;17.37;;;6.30;97.20;;;;;;1742155;28;20207;-73
2022/12/03 06:35:43;;;;;;;20.73;17.23;;;6.30;97.20;;;;;;1742098;28;20213;-72
2022/12/03 06:36:35;;;;;;;20.53;17.23;;;6.30;97.20;;;;;;1741960;28;20286;-72
2022/12/03 06:37:26;;;;;;;19.50;16.73;;;6.30;97.20;;;;;;1741652;28;20195;-72
2022/12/03 06:38:17;;;;;;;19.73;16.53;;;6.30;97.20;;;;;;1741995;28;20207;-73
2022/12/03 06:39:08;;;;;;;20.73;16.75;;;6.30;97.20;;;;;;1742202;28;20203;-72
2022/12/03 06:40:00;;;;;;;20.07;16.87;;;6.20;97.20;;;;;;1741559;28;20199;-73
2022/12/03 06:40:50;;;;;;;21.00;17.27;;;6.20;97.20;;;;;;1741978;28;20237;-72
2022/12/03 06:41:42;;;;;;;19.40;16.73;;;6.20;97.20;;;;;;1741831;28;20203;-72
2022/12/03 06:42:33;;;;;;;20.15;17.10;;;6.20;97.20;;;;;;1742067;28;20207;-73
2022/12/03 06:43:25;;;;;;;21.23;16.47;;;6.20;97.20;;;;;;1741945;28;20203;-73
2022/12/03 06:44:15;;;;;;;20.30;16.75;;;6.10;97.20;;;;;;1742080;28;20206;-72
2022/12/03 06:45:08;;;;;;;21.40;16.60;;;6.10;97.20;;;;;;1742107;28;20195;-72
2022/12/03 06:45:59;;;;;;;20.65;17.30;;;6.10;97.20;;;;;;1741873;28;20252;-72
2022/12/03 06:46:52;;;;;;;22.60;17.40;;;6.10;97.20;;;;;;1741901;28;20245;-72
2022/12/03 06:47:42;;;;;;;21.95;18.42;;;6.10;97.20;;;;;;1741697;28;20206;-72
2022/12/03 06:48:34;;;;;;;22.20;17.30;;;6.10;97.20;;;;;;1742046;28;20229;-72
2022/12/03 06:49:25;;;;;;;21.48;17.35;;;6.10;97.20;;;;;;1742036;28;20203;-73
2022/12/03 06:50:17;;;;;;;20.90;16.73;;;6.10;97.20;;;;;;1741471;28;20206;-73
2022/12/03 06:51:07;;;;;;;19.80;16.08;;;6.00;97.20;;;;;;1741952;28;20332;-73
2022/12/03 06:51:59;;;;;;;19.47;17.10;;;6.00;97.20;;;;;;1741870;28;20210;-72
2022/12/03 06:52:50;;;;;;;23.08;17.55;;;6.00;97.20;;;;;;1742114;28;20210;-72
2022/12/03 06:53:42;;;;;;;21.40;17.23;;;6.00;97.20;;;;;;1741897;28;20203;-72
2022/12/03 06:54:32;;;;;;;19.55;16.92;;;6.10;97.20;;;;;;1741914;28;20226;-72
2022/12/03 06:55:24;;;;;;;20.07;16.53;;;6.10;97.20;;;;;;1742011;28;20206;-72
2022/12/03 06:56:15;;;;;;;23.23;17.63;;;6.10;97.20;;;;;;1741889;28;20364;-72
2022/12/03 06:57:06;;;;;;;21.80;17.40;;;6.10;97.20;;;;;;1741661;28;20277;-72
2022/12/03 06:57:57;;;;;;;18.20;16.05;;;6.10;97.20;;;;;;1741685;28;20580;-72
2022/12/03 06:58:49;;;;;;;20.33;17.10;;;6.10;97.20;;;;;;1741913;28;20549;-72
2022/12/03 06:59:39;;;;;;;20.63;16.92;;;6.20;97.20;;;;;;1741926;28;20204;-72
2022/12/03 07:00:31;;;;;;;18.00;16.10;;;6.20;97.20;;;;;;1741397;28;20688;-72
2022/12/03 07:01:22;;;;;;;19.60;17.20;;;6.20;97.20;;;;;;1741796;28;20204;-72
2022/12/03 07:02:15;;;;;;;20.23;17.00;;;6.20;97.20;;;;;;1741922;28;20295;-72
2022/12/03 07:03:06;;;;;;;21.88;17.30;;;6.20;97.20;;;;;;1741933;28;20449;-72
2022/12/03 07:03:58;;;;;;;21.23;17.00;;;6.20;97.20;;;;;;1741856;28;20674;-72
2022/12/03 07:04:49;;;;;;;19.35;15.63;;;6.20;97.20;;;;;;1741919;28;20199;-72
2022/12/03 07:05:40;;;;;;;19.03;16.33;;;6.20;97.20;;;;;;1741818;28;20207;-72
2022/12/03 07:06:31;;;;;;;19.52;16.42;;;6.30;97.20;;;;;;1741958;28;20218;-71
2022/12/03 07:07:23;;;;;;;21.00;16.50;;;6.30;97.20;;;;;;1741272;28;20294;-72
2022/12/03 07:08:13;;;;;;;21.13;16.50;;;6.30;97.20;;;;;;1742007;28;20691;-72
2022/12/03 07:09:05;;;;;;;22.33;17.63;;;6.30;97.20;;;;;;1741778;28;20568;-72
2022/12/03 07:09:56;;;;;;;23.77;18.90;;;6.30;97.20;;;;;;1741151;28;20653;-72
2022/12/03 07:10:48;;;;;;;18.83;16.80;;;6.30;97.20;;;;;;1741820;28;20589;-72
2022/12/03 07:11:39;;;;;;;19.95;17.27;;;6.30;97.20;;;;;;1741586;28;20203;-72
2022/12/03 07:12:31;;;;;;;20.58;16.98;;;6.30;97.20;;;;;;1741919;28;20196;-72
2022/12/03 07:13:22;;;;;;;23.13;18.48;;;6.40;97.20;;;;;;1741788;28;20210;-71
2022/12/03 07:14:14;;;;;;;19.73;16.20;;;6.30;97.20;;;;;;1741846;28;20203;-72
2022/12/03 07:15:06;;;;;;;23.00;17.13;;;6.40;97.20;;;;;;1741739;28;20226;-72
2022/12/03 07:15:57;;;;;;;20.58;17.27;;;6.40;97.20;;;;;;1741775;28;20582;-72
2022/12/03 07:16:48;;;;;;;19.55;16.30;;;6.40;97.20;;;;;;1741697;28;20203;-72
2022/12/03 07:17:41;;;;;;;19.40;17.20;;;6.40;97.20;;;;;;1741419;28;20677;-72
2022/12/03 07:18:32;;;;;;;20.35;16.80;;;6.40;97.20;;;;;;1741863;28;20210;-71
2022/12/03 07:19:23;;;;;;;18.83;15.23;;;6.40;97.20;;;;;;1741752;28;20649;-71
2022/12/03 07:20:15;;;;;;;20.15;16.48;;;6.40;97.20;;;;;;1741180;28;20195;-72
2022/12/03 07:21:06;;;;;;;18.25;15.48;;;6.40;97.20;;;;;;1741768;28;20199;-72
2022/12/03 07:21:57;;;;;;;21.45;17.27;;;6.40;97.20;;;;;;1741743;28;20214;-72
2022/12/03 07:22:49;;;;;;;18.83;16.37;;;6.40;97.20;;;;;;1742003;28;20223;-72
2022/12/03 07:23:40;;;;;;;21.33;16.05;;;6.40;97.20;;;;;;1741776;28;20203;-72
2022/12/03 07:24:31;;;;;;;21.27;16.77;;;6.30;97.20;;;;;;1741861;28;20671;-72
2022/12/03 07:25:22;;;;;;;20.05;16.98;;;6.40;97.20;;;;;;1741704;28;20203;-72
2022/12/03 07:26:14;;;;;;;18.93;16.57;;;6.40;97.20;;;;;;1741336;28;20202;-73
2022/12/03 07:27:05;;;;;;;22.95;17.80;;;6.40;97.20;;;;;;1741488;28;20200;-72
2022/12/03 07:27:56;;;;;;;18.23;15.98;;;6.40;97.20;;;;;;1741496;28;20661;-72
2022/12/03 07:28:47;;;;;;;18.40;15.70;;;6.40;97.20;;;;;;1741652;28;20586;-72
2022/12/03 07:29:39;;;;;;;19.60;16.37;;;6.40;97.20;;;;;;1741701;28;20203;-73
2022/12/03 07:30:29;;;;;;;18.23;16.25;;;6.40;97.20;;;;;;1741094;28;20227;-72
2022/12/03 07:31:21;;;;;;;21.63;16.97;;;6.40;97.20;;;;;;1741609;28;20261;-72
2022/12/03 07:32:12;;;;;;;21.08;16.92;;;6.40;97.20;;;;;;1741511;28;20203;-72
2022/12/03 07:33:05;;;;;;;21.67;17.40;;;6.40;97.20;;;;;;1741812;28;20206;-72
2022/12/03 07:33:55;;;;;;;22.30;18.23;;;6.40;97.20;;;;;;1741701;28;20230;-72
2022/12/03 07:34:47;;;;;;;19.07;15.93;;;6.40;97.20;;;;;;1741824;28;20245;-72
2022/12/03 07:35:38;;;;;;;22.05;16.83;;;6.40;97.20;;;;;;1741791;28;20199;-72
2022/12/03 07:36:30;;;;;;;20.90;16.50;;;6.40;97.20;;;;;;1741820;28;20262;-72
2022/12/03 07:37:20;;;;;;;21.98;17.23;;;6.40;97.20;;;;;;1741191;28;20210;-72
2022/12/03 07:38:12;;;;;;;19.90;16.07;;;6.40;97.20;;;;;;1741729;28;20295;-72
2022/12/03 07:39:04;;;;;;;22.90;18.80;;;6.40;97.20;;;;;;1741750;28;20210;-72
2022/12/03 07:39:55;;;;;;;21.10;17.35;;;6.40;97.20;;;;;;1740991;28;20636;-72
2022/12/03 07:40:46;;;;;;;23.13;17.95;;;6.40;97.20;;;;;;1741701;28;20223;-72
2022/12/03 07:41:38;;;;;;;22.80;17.10;;;6.40;97.20;;;;;;1741462;28;20207;-73
2022/12/03 07:42:28;;;;;;;20.15;18.02;;;6.40;97.20;;;;;;1741829;28;20216;-72
2022/12/03 07:43:19;;;;;;;21.47;17.17;;;6.40;97.20;;;;;;1741597;28;20209;-72
2022/12/03 07:44:11;;;;;;;24.10;17.67;;;6.40;97.20;;;;;;1741757;28;20206;-72
2022/12/03 07:45:02;;;;;;;19.10;16.25;;;6.40;97.20;;;;;;1741594;28;20200;-72
2022/12/03 07:45:54;;;;;;;22.73;18.20;;;6.40;97.20;;;;;;1741623;28;20195;-72
2022/12/03 07:46:45;;;;;;;20.35;16.80;;;6.40;97.20;;;;;;1741429;28;20703;-72
2022/12/03 07:47:37;;;;;;;20.23;17.43;;;6.40;97.20;;;;;;1741335;28;20615;-72
2022/12/03 07:48:29;;;;;;;21.10;18.15;;;6.40;97.20;;;;;;1741718;28;20210;-72
2022/12/03 07:49:20;;;;;;;21.70;17.55;;;6.40;97.20;;;;;;1741617;28;20207;-72
2022/12/03 07:50:11;;;;;;;21.73;16.92;;;6.50;97.20;;;;;;1741063;28;20211;-72
2022/12/03 07:51:03;;;;;;;23.13;18.13;;;6.50;97.20;;;;;;1741464;28;20392;-73
2022/12/03 07:51:55;;;;;;;21.67;18.05;;;6.50;97.20;;;;;;1741585;28;20939;-72
2022/12/03 07:52:47;;;;;;;21.52;17.00;;;6.40;97.20;;;;;;1741681;28;20196;-72
2022/12/03 07:53:38;;;;;;;22.70;17.77;;;6.40;97.20;;;;;;1741638;28;20595;-72
2022/12/03 07:54:29;;;;;;;21.53;17.87;;;6.40;97.20;;;;;;1741536;28;20232;-72
2022/12/03 07:55:20;;;;;;;19.98;16.90;;;6.40;97.20;;;;;;1741499;28;20210;-72
2022/12/03 07:56:12;;;;;;;27.67;20.13;;;6.40;97.20;;;;;;1741656;28;20687;-72
2022/12/03 07:57:02;;;;;;;21.77;18.77;;;6.40;97.20;;;;;;1741388;28;20206;-72
2022/12/03 07:57:54;;;;;;;23.70;19.53;;;6.40;97.20;;;;;;1741305;28;20195;-72
2022/12/03 07:58:45;;;;;;;25.08;18.85;;;6.40;97.20;;;;;;1741602;28;20438;-72
2022/12/03 07:59:37;;;;;;;26.00;20.43;;;6.40;97.20;;;;;;1741541;28;20207;-72
2022/12/03 08:00:27;;;;;;;23.90;17.55;;;6.40;97.20;;;;;;1740939;28;20203;-72
2022/12/03 08:01:19;;;;;;;25.83;19.00;;;6.40;97.20;;;;;;1741457;28;20203;-72
2022/12/03 08:02:10;;;;;;;24.95;20.27;;;6.40;97.20;;;;;;1741587;28;20434;-72
2022/12/03 08:03:01;;;;;;;25.60;19.53;;;6.40;97.20;;;;;;1741561;28;20206;-72
2022/12/03 08:03:54;;;;;;;25.60;19.70;;;6.40;97.20;;;;;;1741687;28;20203;-72
2022/12/03 08:04:45;;;;;;;23.30;18.27;;;6.40;97.20;;;;;;1741577;28;20203;-72
2022/12/03 08:05:36;;;;;;;23.20;18.88;;;6.40;97.20;;;;;;1741391;28;20199;-72
2022/12/03 08:06:28;;;;;;;24.23;19.43;;;6.40;97.20;;;;;;1741433;28;20209;-72
2022/12/03 08:07:18;;;;;;;23.67;19.17;;;6.40;97.20;;;;;;1741066;28;20600;-73
2022/12/03 08:08:10;;;;;;;24.80;19.70;;;6.40;97.20;;;;;;1741060;28;20183;-73
2022/12/03 08:09:01;;;;;;;26.73;20.83;;;6.40;97.20;;;;;;1741382;28;20203;-72
2022/12/03 08:09:52;;;;;;;23.83;18.63;;;6.40;97.20;;;;;;1741044;28;20686;-73
2022/12/03 08:10:43;;;;;;;24.52;18.70;;;6.40;97.20;;;;;;1741333;28;20223;-72
2022/12/03 08:11:35;;;;;;;26.53;21.00;;;6.40;97.20;;;;;;1741416;28;20195;-72
2022/12/03 08:12:38;;;;;;;22.17;18.17;;;6.40;97.20;;;;;;1741479;28;20203;-72
2022/12/03 08:13:30;;;;;;;25.30;19.63;;;6.40;97.20;;;;;;1741468;28;20199;-72
2022/12/03 08:14:21;;;;;;;26.38;19.38;;;6.40;97.20;;;;;;1741320;28;20203;-72
2022/12/03 08:15:17;;;;;;;25.87;19.40;;;6.40;97.20;;;;;;1741424;28;20223;-72
2022/12/03 08:16:15;;;;;;;23.58;18.77;;;6.40;97.20;;;;;;1741531;28;20449;-72
2022/12/03 08:17:11;;;;;;;24.20;19.90;;;6.40;97.20;;;;;;1741284;28;20245;-72
2022/12/03 08:18:07;;;;;;;24.83;19.02;;;6.40;97.20;;;;;;1741085;28;20664;-72
2022/12/03 08:19:01;;;;;;;26.08;20.25;;;6.40;97.20;;;;;;1741530;28;20619;-73
2022/12/03 08:19:52;;;;;;;25.17;19.40;;;6.40;97.20;;;;;;1740922;28;20203;-72
2022/12/03 08:20:47;;;;;;;23.20;18.90;;;6.40;97.20;;;;;;1741225;28;20476;-72
2022/12/03 08:21:38;;;;;;;25.17;19.95;;;6.40;97.20;;;;;;1741304;28;20352;-72
2022/12/03 08:22:30;;;;;;;22.17;17.92;;;6.40;97.20;;;;;;1741507;28;20195;-72
2022/12/03 08:23:24;;;;;;;23.13;19.30;;;6.40;97.20;;;;;;1741267;28;20214;-72
2022/12/03 08:24:17;;;;;;;25.63;19.63;;;6.40;97.20;;;;;;1741340;28;20206;-72
2022/12/03 08:25:17;;;;;;;23.92;19.23;;;6.40;97.20;;;;;;1741402;28;20252;-72
2022/12/03 08:26:18;;;;;;;26.70;19.70;;;6.40;97.20;;;;;;1741446;28;20214;-72
2022/12/03 08:27:18;;;;;;;26.67;20.17;;;6.40;97.20;;;;;;1741182;28;20215;-72
2022/12/03 08:28:17;;;;;;;24.98;19.45;;;6.40;97.20;;;;;;1741142;28;20187;-72
2022/12/03 08:29:09;;;;;;;22.98;19.15;;;6.30;97.20;;;;;;1741474;28;20184;-72
2022/12/03 08:30:04;;;;;;;25.48;21.17;;;6.30;97.20;;;;;;1740729;28;20569;-73
2022/12/03 08:30:59;;;;;;;22.15;19.05;;;6.30;97.20;;;;;;1741148;28;20235;-72
2022/12/03 08:31:53;;;;;;;23.33;18.88;;;6.30;97.20;;;;;;1741371;28;20206;-72
2022/12/03 08:32:44;;;;;;;24.42;19.55;;;6.30;97.20;;;;;;1741356;28;20207;-72
2022/12/03 08:33:37;;;;;;;23.48;18.05;;;6.30;97.20;;;;;;1741301;28;20226;-72
2022/12/03 08:34:36;;;;;;;23.67;18.73;;;6.30;97.20;;;;;;1741322;28;20199;-73
2022/12/03 08:35:31;;;;;;;24.45;17.65;;;6.30;97.20;;;;;;1741281;28;20227;-72
2022/12/03 08:36:23;;;;;;;24.77;18.42;;;6.30;97.20;;;;;;1741287;28;20207;-72
2022/12/03 08:37:18;;;;;;;23.50;18.08;;;6.30;97.20;;;;;;1741037;28;20207;-72
2022/12/03 08:38:11;;;;;;;21.30;16.90;;;6.30;97.20;;;;;;1740228;28;20195;-72
2022/12/03 08:39:14;;;;;;;23.63;19.23;;;6.30;97.20;;;;;;1741292;28;20620;-72
2022/12/03 08:40:20;;;;;;;23.10;18.33;;;6.30;97.20;;;;;;1740883;28;20199;-72
2022/12/03 08:41:13;;;;;;;23.60;18.50;;;6.30;97.20;;;;;;1741146;28;20207;-72
2022/12/03 08:43:23;;;;;;;25.30;19.75;;;6.30;97.20;;;;;;1741291;28;20228;-72
2022/12/03 08:44:22;;;;;;;24.90;18.83;;;6.30;97.20;;;;;;1741269;28;20204;-72
2022/12/03 08:45:33;;;;;;;22.38;17.77;;;6.30;97.20;;;;;;1741317;28;20206;-72
2022/12/03 08:46:25;;;;;;;25.27;19.63;;;6.30;97.20;;;;;;1741169;28;20199;-72
2022/12/03 08:47:20;;;;;;;21.42;17.70;;;6.30;97.20;;;;;;1740927;28;20199;-72
2022/12/03 08:48:23;;;;;;;22.75;18.00;;;6.30;97.20;;;;;;1741018;28;20202;-72
2022/12/03 08:49:23;;;;;;;24.33;19.27;;;6.30;97.20;;;;;;1741286;28;20563;-72
2022/12/03 08:50:25;;;;;;;24.00;19.33;;;6.30;97.20;;;;;;1740613;28;20210;-72
2022/12/03 08:51:21;;;;;;;25.23;20.05;;;6.30;97.20;;;;;;1741098;28;20210;-73
2022/12/03 08:52:15;;;;;;;24.27;19.23;;;6.30;97.20;;;;;;1741311;28;20622;-72
2022/12/03 08:53:27;;;;;;;24.80;19.70;;;6.30;97.20;;;;;;1741193;28;20195;-72
2022/12/03 08:54:18;;;;;;;23.92;18.15;;;6.30;97.20;;;;;;1741137;28;20676;-72
2022/12/03 08:55:32;;;;;;;25.45;19.02;;;6.30;97.20;;;;;;1741231;28;20225;-72
2022/12/03 08:56:25;;;;;;;24.10;19.20;;;6.30;97.20;;;;;;1741216;28;20183;-72
2022/12/03 08:57:25;;;;;;;24.33;18.73;;;6.30;97.20;;;;;;1740942;28;20257;-72
2022/12/03 08:58:21;;;;;;;23.92;19.45;;;6.30;97.20;;;;;;1740935;28;20734;-72
2022/12/03 08:59:25;;;;;;;22.38;18.23;;;6.30;97.20;;;;;;1741181;28;20203;-71
2022/12/03 09:00:19;;;;;;;22.67;17.70;;;6.30;97.20;;;;;;1740597;28;20223;-71
2022/12/03 09:01:38;;;;;;;22.73;17.95;;;6.20;97.20;;;;;;1741154;28;20205;-72
2022/12/03 09:02:31;;;;;;;24.92;18.15;;;6.20;97.20;;;;;;1740853;28;20199;-71
2022/12/03 09:03:24;;;;;;;24.23;18.38;;;6.20;97.20;;;;;;1741097;28;20214;-71
2022/12/03 09:04:22;;;;;;;23.65;19.15;;;6.20;97.20;;;;;;1741126;28;20619;-71
2022/12/03 09:05:19;;;;;;;23.65;18.02;;;6.20;97.20;;;;;;1741357;28;20245;-72
2022/12/03 09:06:09;;;;;;;23.50;17.95;;;6.20;97.20;;;;;;1741158;28;20206;-71
2022/12/03 09:07:01;;;;;;;26.43;18.43;;;6.20;97.20;;;;;;1740899;28;20203;-72
2022/12/03 09:07:52;;;;;;;24.00;18.65;;;6.20;97.20;;;;;;1740738;28;20220;-71
2022/12/03 09:08:44;;;;;;;24.87;18.97;;;6.20;97.20;;;;;;1741047;28;20207;-71
2022/12/03 09:09:35;;;;;;;25.75;19.48;;;6.20;97.20;;;;;;1741085;28;20234;-71
2022/12/03 09:10:26;;;;;;;22.23;19.10;;;6.20;97.20;;;;;;1740604;28;20206;-71
2022/12/03 09:11:17;;;;;;;23.58;19.35;;;6.20;97.20;;;;;;1740826;28;20445;-71
2022/12/03 09:12:09;;;;;;;26.50;20.00;;;6.20;97.20;;;;;;1741053;28;20199;-72
2022/12/03 09:12:59;;;;;;;26.20;20.75;;;6.20;97.20;;;;;;1741036;28;20207;-71
2022/12/03 09:13:51;;;;;;;28.07;20.13;;;6.20;97.20;;;;;;1741210;28;20201;-71
2022/12/03 09:14:42;;;;;;;25.50;19.42;;;6.10;97.20;;;;;;1741051;28;20204;-72
2022/12/03 09:15:34;;;;;;;24.00;19.33;;;6.10;97.20;;;;;;1741012;28;20219;-71
2022/12/03 09:16:25;;;;;;;27.08;20.80;;;6.10;97.20;;;;;;1741013;28;20683;-71
2022/12/03 09:17:16;;;;;;;26.60;20.47;;;6.10;97.20;;;;;;1740778;28;20676;-72
2022/12/03 09:18:08;;;;;;;25.58;19.65;;;6.10;97.20;;;;;;1740764;28;20653;-71
2022/12/03 09:18:59;;;;;;;27.33;20.67;;;6.10;97.20;;;;;;1741075;28;20574;-72
2022/12/03 09:19:50;;;;;;;29.58;22.20;;;6.10;97.20;;;;;;1740521;28;20221;-72
2022/12/03 09:20:43;;;;;;;24.97;20.50;;;6.10;97.20;;;;;;1740843;28;20301;-72
2022/12/03 09:21:34;;;;;;;29.30;22.13;;;6.10;97.20;;;;;;1740954;28;20214;-72
2022/12/03 09:22:26;;;;;;;27.67;22.00;;;6.10;97.20;;;;;;1741135;28;20698;-71
2022/12/03 09:23:16;;;;;;;30.20;22.45;;;6.10;97.20;;;;;;1741009;28;20203;-71
2022/12/03 09:24:08;;;;;;;28.97;22.60;;;6.10;97.20;;;;;;1741015;28;20195;-71
2022/12/03 09:24:59;;;;;;;29.25;23.30;;;6.10;97.20;;;;;;1740960;28;20211;-72
2022/12/03 09:25:51;;;;;;;29.73;22.90;;;6.10;97.20;;;;;;1741129;28;20205;-71
2022/12/03 09:26:42;;;;;;;26.73;20.42;;;6.10;97.20;;;;;;1740683;28;20202;-72
2022/12/03 09:27:33;;;;;;;30.83;22.80;;;6.10;97.20;;;;;;1740953;28;20207;-71
2022/12/03 09:28:24;;;;;;;29.70;22.33;;;6.10;97.20;;;;;;1740579;28;20199;-71
2022/12/03 09:29:16;;;;;;;29.07;22.67;;;6.10;97.20;;;;;;1740853;28;20199;-71
2022/12/03 09:30:07;;;;;;;31.40;24.45;;;6.10;97.20;;;;;;1740373;28;20973;-72
2022/12/03 09:30:59;;;;;;;28.15;21.83;;;6.10;97.20;;;;;;1740721;28;20230;-71
2022/12/03 09:31:50;;;;;;;27.42;20.70;;;6.10;97.20;;;;;;1741015;28;20687;-72
2022/12/03 09:32:41;;;;;;;27.47;21.03;;;6.10;97.20;;;;;;1740964;28;20649;-71
2022/12/03 09:33:32;;;;;;;29.58;21.42;;;6.10;97.20;;;;;;1740995;28;20207;-71
2022/12/03 09:34:24;;;;;;;27.43;21.10;;;6.10;97.20;;;;;;1740916;28;20210;-72
2022/12/03 09:35:15;;;;;;;26.33;21.00;;;6.10;97.20;;;;;;1740935;28;20202;-71
2022/12/03 09:36:08;;;;;;;27.70;21.50;;;6.10;97.20;;;;;;1740898;28;20210;-72
2022/12/03 09:37:00;;;;;;;27.15;20.73;;;6.10;97.20;;;;;;1740623;28;20452;-72
2022/12/03 09:37:50;;;;;;;26.25;21.23;;;6.10;97.20;;;;;;1740757;28;20194;-71
2022/12/03 09:38:42;;;;;;;29.83;23.30;;;6.10;97.20;;;;;;1740862;28;20575;-71
2022/12/03 09:39:33;;;;;;;28.52;21.98;;;6.10;97.20;;;;;;1741034;28;20268;-72
2022/12/03 09:40:25;;;;;;;28.70;21.30;;;6.10;97.20;;;;;;1740244;28;20253;-72
2022/12/03 09:41:16;;;;;;;27.83;20.85;;;6.10;97.20;;;;;;1740890;28;20218;-72
2022/12/03 09:42:08;;;;;;;26.83;20.70;;;6.10;97.20;;;;;;1740888;28;20281;-72
2022/12/03 09:42:59;;;;;;;29.10;21.85;;;6.10;97.20;;;;;;1740886;28;20943;-71
2022/12/03 09:43:52;;;;;;;27.70;21.40;;;6.20;97.20;;;;;;1741040;28;20199;-71
2022/12/03 09:44:43;;;;;;;26.30;19.75;;;6.20;97.20;;;;;;1740874;28;20206;-72
2022/12/03 09:45:34;;;;;;;26.40;21.58;;;6.20;97.20;;;;;;1740961;28;20198;-71
2022/12/03 09:46:25;;;;;;;28.33;21.23;;;6.20;97.20;;;;;;1740832;28;20199;-72
2022/12/03 09:47:17;;;;;;;25.20;20.40;;;6.20;97.20;;;;;;1740649;28;20209;-71
2022/12/03 09:48:09;;;;;;;26.15;21.33;;;6.20;97.20;;;;;;1740568;28;20195;-72
2022/12/03 09:49:01;;;;;;;27.38;20.65;;;6.20;97.20;;;;;;1740672;28;20692;-71
2022/12/03 09:49:52;;;;;;;25.88;20.65;;;6.20;97.20;;;;;;1740485;28;20203;-71
2022/12/03 09:50:44;;;;;;;27.02;20.77;;;6.20;97.20;;;;;;1740826;28;20590;-71
2022/12/03 09:51:36;;;;;;;26.08;20.70;;;6.20;97.20;;;;;;1740793;28;20660;-72
2022/12/03 09:52:32;;;;;;;27.35;21.23;;;6.30;97.20;;;;;;1740840;28;20683;-71
2022/12/03 09:53:25;;;;;;;26.25;19.02;;;6.30;97.20;;;;;;1740877;28;20352;-72
2022/12/03 09:54:23;;;;;;;24.58;19.80;;;6.30;97.20;;;;;;1740856;28;20210;-71
2022/12/03 09:55:17;;;;;;;24.58;20.20;;;6.30;97.20;;;;;;1740937;28;20203;-71
2022/12/03 09:56:22;;;;;;;26.48;20.13;;;6.30;97.20;;;;;;1740883;28;20195;-71
2022/12/03 09:57:14;;;;;;;26.10;19.63;;;6.30;97.20;;;;;;1740622;28;20214;-72
2022/12/03 09:58:11;;;;;;;25.00;19.88;;;6.30;97.20;;;;;;1740704;28;20248;-71
2022/12/03 09:59:04;;;;;;;28.20;20.83;;;6.30;97.20;;;;;;1740809;28;20218;-71
2022/12/03 09:59:56;;;;;;;27.75;21.05;;;6.30;97.20;;;;;;1740327;28;20195;-72
2022/12/03 10:00:50;;;;;;;27.58;21.02;;;6.30;97.20;;;;;;1740741;28;20238;-71
2022/12/03 10:01:42;;;;;;;30.35;22.45;;;6.30;97.20;;;;;;1740739;28;20199;-72
2022/12/03 10:02:34;;;;;;;27.60;22.75;;;6.30;97.20;;;;;;1740981;28;20215;-72
2022/12/03 10:03:29;;;;;;;31.08;22.42;;;6.30;97.20;;;;;;1740770;28;20554;-71
2022/12/03 10:04:20;;;;;;;26.48;20.77;;;6.30;97.20;;;;;;1740808;28;20207;-71
2022/12/03 10:05:12;;;;;;;25.60;20.20;;;6.30;97.20;;;;;;1741001;28;20225;-72
2022/12/03 10:06:03;;;;;;;27.95;21.58;;;6.30;97.20;;;;;;1740812;28;20469;-71
2022/12/03 10:06:58;;;;;;;26.57;20.53;;;6.30;97.20;;;;;;1740729;28;20225;-72
2022/12/03 10:07:50;;;;;;;29.08;21.20;;;6.30;97.20;;;;;;1740625;28;20442;-72
2022/12/03 10:08:42;;;;;;;24.88;21.02;;;6.30;97.20;;;;;;1740734;28;20680;-71
2022/12/03 10:09:33;;;;;;;24.80;20.67;;;6.30;97.20;;;;;;1740868;28;20701;-71
2022/12/03 10:10:25;;;;;;;24.97;19.60;;;6.30;97.20;;;;;;1739600;28;20595;-72
2022/12/03 10:11:17;;;;;;;22.98;19.33;;;6.30;97.20;;;;;;1740748;28;20211;-71
2022/12/03 10:12:11;;;;;;;27.23;20.50;;;6.30;97.20;;;;;;1740893;28;20233;-72
2022/12/03 10:13:03;;;;;;;24.10;18.90;;;6.30;97.20;;;;;;1733902;28;20203;-72
2022/12/03 10:13:56;;;;;;;25.98;19.95;;;6.30;97.20;;;;;;1733994;28;20558;-70
2022/12/03 10:14:46;;;;;;;25.75;20.15;;;6.30;97.20;;;;;;1737877;28;20202;-72
2022/12/03 10:15:38;;;;;;;24.67;19.80;;;6.30;97.20;;;;;;1740721;28;20656;-72
2022/12/03 10:16:29;;;;;;;23.38;19.27;;;6.30;97.20;;;;;;1740827;28;20207;-71
2022/12/03 10:17:21;;;;;;;26.90;20.20;;;6.30;97.20;;;;;;1740135;28;20217;-72
2022/12/03 10:18:17;;;;;;;25.55;21.20;;;6.30;97.20;;;;;;1740851;28;20234;-72
2022/12/03 10:19:11;;;;;;;24.63;19.42;;;6.30;97.20;;;;;;1740882;28;20622;-72
2022/12/03 10:20:02;;;;;;;24.70;20.00;;;6.20;97.20;;;;;;1740167;28;20199;-70
2022/12/03 10:20:54;;;;;;;29.00;20.83;;;6.20;97.20;;;;;;1740750;28;20223;-72
2022/12/03 10:21:45;;;;;;;26.30;20.02;;;6.20;97.20;;;;;;1740651;28;20463;-72
2022/12/03 10:22:38;;;;;;;26.00;20.10;;;6.20;97.20;;;;;;1740804;28;20206;-71
2022/12/03 10:23:30;;;;;;;23.90;18.58;;;6.20;97.20;;;;;;1740831;28;20680;-72
2022/12/03 10:24:25;;;;;;;24.20;19.88;;;6.20;97.20;;;;;;1740613;28;20206;-71
2022/12/03 10:25:18;;;;;;;24.30;19.25;;;6.30;97.20;;;;;;1733905;28;20208;-71
2022/12/03 10:26:09;;;;;;;24.85;19.40;;;6.30;97.20;;;;;;1739386;28;20192;-71
2022/12/03 10:27:02;;;;;;;22.65;18.10;;;6.30;97.20;;;;;;1740447;28;20215;-72
2022/12/03 10:27:57;;;;;;;21.65;18.30;;;6.30;97.20;;;;;;1740593;28;20234;-71
2022/12/03 10:28:48;;;;;;;22.02;18.17;;;6.30;97.20;;;;;;1740787;28;20199;-72
2022/12/03 10:29:40;;;;;;;21.13;16.85;;;6.30;97.20;;;;;;1740785;28;20283;-71
2022/12/03 10:30:31;;;;;;;23.58;18.30;;;6.30;97.20;;;;;;1740083;28;20242;-72
2022/12/03 10:31:35;;;;;;;22.80;16.80;;;6.30;97.20;;;;;;1740606;28;20234;-72